Flight Track Log - Related Links

Times and Time Zones

All times are in EDT time to prevent confusion due to time zone crossing. See the AWI53A flight status page for this flight to view local times or setup timezone preferences in your user account.

Time Position Orientation Groundspeed Altitude Reporting Facility
EDT Latitude Longitude Course Direction KTS MPH feet Rate Location/Type
Wed 09:21:58 AM 38.7833 -77.0333 180° South 207 238 1,900  Level Potomac TRACON
Wed 09:23:04 AM 38.7333 -76.9667 134° Southeast 267 307 3,700 1,950 Climbing Potomac TRACON
Wed 09:23:58 AM 38.6833 -76.9000 134° Southeast 275 316 5,800 1,333 Climbing Potomac TRACON
Wed 09:25:19 AM 38.6114 -76.8006 133° Southeast 292 336 6,700 1,183 Climbing Washington Center
Wed 09:26:20 AM 38.5514 -76.7306 138° Southeast 292 336 8,600 1,983 Climbing Washington Center
Wed 09:27:00 AM 38.3132 -76.6833 180° South  Level FlightAware Approximate
Wed 09:27:20 AM 38.4725 -76.7133 170° South 272 313 10,700  Level Washington Center
Wed 09:28:18 AM 38.3911 -76.7069 176° South 282 325 12,500 1,664 Climbing Washington Center
Wed 09:29:19 AM 38.3078 -76.6978 175° South 297 342 14,000 1,525 Climbing Washington Center
Wed 09:30:20 AM 38.2308 -76.6808 170° South 308 354 15,600 1,438 Climbing Washington Center
Wed 09:31:20 AM 38.1433 -76.6689 174° South 313 360 16,900 1,322 Climbing Washington Center
Wed 09:32:18 AM 38.0558 -76.6572 174° South 313 360 18,200 1,160 Climbing Washington Center
Wed 09:33:19 AM 37.9642 -76.6481 175° South 318 366 19,200 1,082 Climbing Washington Center
Wed 09:34:20 AM 37.8703 -76.6572 184° South 329 379 20,400 1,210 Climbing Washington Center
Wed 09:35:18 AM 37.7764 -76.6689 186° South 340 391 21,600 1,210 Climbing Washington Center
Wed 09:36:19 AM 37.6781 -76.6808 185° South 351 404 22,800 1,033 Climbing Washington Center
Wed 09:37:20 AM 37.5800 -76.6925 185° South 351 404 23,700 942 Climbing Washington Center
Wed 09:38:20 AM 37.4797 -76.7067 186° South 362 417 24,700 966 Climbing Washington Center
Wed 09:39:18 AM 37.3772 -76.7392 194° South 368 423 25,600 807 Climbing Washington Center
Wed 09:40:19 AM 37.2789 -76.7794 198° South 379 436 26,300 689 Climbing Washington Center
Wed 09:41:20 AM 37.1783 -76.8222 199° South 384 442 27,000 744 Climbing Washington Center
Wed 09:42:20 AM 37.0736 -76.8647 198° South 384 442 27,800 508 Climbing Washington Center
Wed 09:43:18 AM 36.9689 -76.9072 198° South 389 448 28,000 102 Climbing Washington Center
Wed 09:44:18 AM 36.8597 -76.9522 198° South 402 463 28,000  Level Washington Center
Wed 09:45:19 AM 36.7444 -76.9994 198° South 422 486 28,000  Level Washington Center
Wed 09:46:19 AM 36.6456 -77.0778 212° Southwest 422 486 28,000  Level Washington Center
Wed 09:47:20 AM 36.5569 -77.1614 217° Southwest 417 480 28,000  Level Washington Center
Wed 09:48:20 AM 36.4744 -77.2425 218° Southwest 404 465 28,000  Level Washington Center
Wed 09:49:18 AM 36.3897 -77.3181 216° Southwest 392 451 28,000  Level Washington Center
Wed 09:50:18 AM 36.3031 -77.4014 218° Southwest 387 445 28,000  Level Washington Center
Wed 09:51:18 AM 36.2183 -77.4792 217° Southwest 392 451 28,000  Level Washington Center
Wed 09:52:19 AM 36.1314 -77.5619 218° Southwest 392 451 28,000  Level Washington Center
Wed 09:53:19 AM 36.0447 -77.6419 217° Southwest 392 451 28,000  Level Washington Center
Wed 09:54:20 AM 35.9536 -77.7242 216° Southwest 392 451 28,000  Level Washington Center
Wed 09:55:20 AM 35.8603 -77.7961 212° Southwest 397 457 28,000  Level Washington Center
Wed 09:56:18 AM 35.7694 -77.8678 213° Southwest 397 457 28,000  Level Washington Center
Wed 09:57:18 AM 35.6761 -77.9392 212° Southwest 402 463 28,000  Level Washington Center
Wed 09:58:19 AM 35.5828 -78.0131 213° Southwest 402 463 28,000  Level Washington Center
Wed 09:59:19 AM 35.4894 -78.0844 212° Southwest 402 463 28,000  Level Washington Center
Wed 10:00:19 AM 35.3900 -78.1603 212° Southwest 397 457 28,000  Level Washington Center
Wed 10:01:20 AM 35.2964 -78.2336 213° Southwest 397 457 28,000  Level Washington Center
Wed 10:02:18 AM 35.2072 -78.3019 212° Southwest 392 451 28,000  Level Washington Center
Wed 10:03:19 AM 35.1158 -78.3750 213° Southwest 392 451 28,000  Level Washington Center
Wed 10:04:20 AM 35.0267 -78.4428 212° Southwest 392 451 28,000  Level Washington Center
Wed 10:06:10 AM 34.8656 -78.5636 212° Southwest 400 460 28,000  Level Jacksonville Center
Wed 10:07:10 AM 34.7742 -78.6339 212° Southwest 394 453 28,000  Level Jacksonville Center
Wed 10:08:10 AM 34.6847 -78.7042 213° Southwest 394 453 28,000  Level Jacksonville Center
Wed 10:09:10 AM 34.5931 -78.7717 211° Southwest 394 453 28,000  Level Jacksonville Center
Wed 10:10:10 AM 34.4956 -78.8542 215° Southwest 394 453 28,000  Level Jacksonville Center
Wed 10:11:10 AM 34.4061 -78.9214 212° Southwest 394 453 28,000 -500 Level Jacksonville Center
Wed 10:12:10 AM 34.3164 -78.9908 213° Southwest 394 453 27,000 -1,050 Descending Jacksonville Center
Wed 10:13:10 AM 34.2139 -79.0456 204° Southwest 394 453 25,900 -1,100 Descending Jacksonville Center
Wed 10:14:10 AM 34.1131 -79.0928 201° Southwest 388 447 24,800 -1,100 Descending Jacksonville Center
Wed 10:15:10 AM 34.0183 -79.1369 201° Southwest 388 447 23,700 -1,100 Descending Jacksonville Center
Wed 10:16:10 AM 33.9258 -79.1783 200° South 378 435 22,600 -1,100 Descending Jacksonville Center
Wed 10:17:10 AM 33.8350 -79.2172 200° South 365 420 21,500 -1,100 Descending Jacksonville Center
Wed 10:18:10 AM 33.7508 -79.2683 207° Southwest 360 414 20,400 -1,300 Descending Jacksonville Center
Wed 10:19:10 AM 33.6692 -79.3267 211° Southwest 347 399 18,900 -1,650 Descending Jacksonville Center
Wed 10:20:10 AM 33.5936 -79.3844 213° Southwest 341 392 17,100 -1,850 Descending Jacksonville Center
Wed 10:21:10 AM 33.5139 -79.4425 211° Southwest 336 387 15,200 -1,900 Descending Jacksonville Center
Wed 10:22:10 AM 33.4339 -79.5003 211° Southwest 336 387 13,300 -1,900 Descending Jacksonville Center
Wed 10:23:10 AM 33.3606 -79.5603 214° Southwest 331 381 11,400 -1,350 Descending Jacksonville Center
Wed 10:24:10 AM 33.2908 -79.6150 213° Southwest 322 371 10,600 -1,300 Descending Jacksonville Center
Wed 10:25:10 AM 33.2364 -79.6867 228° Southwest 305 351 8,800 -1,800 Descending Jacksonville Center
Wed 10:26:10 AM 33.1794 -79.7481 222° Southwest 293 337 7,000 -1,800 Descending Jacksonville Center
Wed 10:27:10 AM 33.1289 -79.8144 228° Southwest 281 323 5,200 -1,800 Descending Jacksonville Center
Wed 10:28:10 AM 33.0742 -79.8733 222° Southwest 273 314 3,400 -1,450 Descending Jacksonville Center
Wed 10:29:10 AM 33.0294 -79.9317 228° Southwest 273 314 2,300 3,800 Descending Jacksonville Center
Wed 10:30:10 AM 32.9789 -79.9953 227° Southwest 273 314 11,000 8,700 Climbing Jacksonville Center
Wed 10:32:00 AM 32.8986 -80.0405 220° Southwest  Level Estimated
Wed 10:39:00 AM 32.8986 -80.0405 348° North  Level Estimated
Wed 10:40:00 AM 32.8986 -80.0405 348° North  Level Estimated
Wed 10:41:00 AM 32.8986 -80.0405 348° North  Level Estimated

Login

Don't have an account? Register now (free) for customized features, flight alerts, and more!